Time;durP1;ratioP1;P1;durP2;ratioP2;P2;SDS_P1;SDS_P2;PMS_P1;PMS_P2;Temp;Humidity;BMP_temperature;BMP_pressure;BME280_temperature;BME280_humidity;BME280_pressure;Samples;Min_cycle;Max_cycle;Signal;HPM_P1;HPM_P2
2021/01/15 00:02:22;;;;;;;19.37;11.57;;;-0.20;99.90;;;-146.47;100.00;66290.13;4975378;28;20622;-76
2021/01/15 00:05:12;;;;;;;19.03;11.03;;;-0.20;99.90;;;-146.47;100.00;66290.13;4972920;28;20264;-76
2021/01/15 00:07:57;;;;;;;16.13;10.30;;;-0.20;99.90;;;-146.47;100.00;66290.13;4972753;28;20229;-77
2021/01/15 00:10:43;;;;;;;18.63;10.57;;;-0.20;99.90;;;-146.47;100.00;66290.13;4967920;28;20281;-78
2021/01/15 00:13:28;;;;;;;16.93;10.37;;;-0.20;99.90;;;-146.47;100.00;66290.13;4966961;28;20266;-76
2021/01/15 00:16:21;;;;;;;19.47;9.73;;;-0.10;99.90;;;-146.47;100.00;66290.13;4968222;28;20225;-77
2021/01/15 00:19:06;;;;;;;15.77;9.03;;;-0.10;99.90;;;-146.47;100.00;66290.13;4962536;28;20218;-77
2021/01/15 00:21:52;;;;;;;17.17;9.97;;;-0.10;99.90;;;-146.47;100.00;66290.13;4966695;28;20238;-77
2021/01/15 00:24:37;;;;;;;16.03;9.17;;;-0.10;99.90;;;-146.47;100.00;66290.13;4974976;28;20222;-78
2021/01/15 00:27:23;;;;;;;17.83;8.80;;;-0.10;99.90;;;-146.47;100.00;66290.13;4963976;28;20205;-77
2021/01/15 00:30:11;;;;;;;18.43;9.27;;;-0.10;99.90;;;-146.47;100.00;66290.13;4974934;28;20312;-77
2021/01/15 00:32:56;;;;;;;15.10;8.60;;;-0.10;99.90;;;-146.47;100.00;66290.13;4971097;28;20229;-76
2021/01/15 00:35:41;;;;;;;16.90;9.97;;;-0.20;99.90;;;-146.47;100.00;66290.13;4960089;28;20214;-77
2021/01/15 00:38:26;;;;;;;18.87;10.17;;;-0.20;99.90;;;-146.47;100.00;66290.13;4959611;28;20266;-77
2021/01/15 00:41:12;;;;;;;17.53;10.00;;;-0.10;99.90;;;-146.47;100.00;66290.13;4961171;28;20249;-78
2021/01/15 00:43:58;;;;;;;16.67;9.53;;;-0.10;99.90;;;-146.47;100.00;66290.13;4980152;28;20252;-77
2021/01/15 00:46:46;;;;;;;18.80;9.10;;;-0.10;99.90;;;-146.47;100.00;66290.13;4973209;28;20229;-77
2021/01/15 00:49:31;;;;;;;18.80;9.43;;;-0.10;99.90;;;-146.47;100.00;66290.13;4979681;28;20294;-77
2021/01/15 00:52:17;;;;;;;16.90;9.53;;;-0.10;99.90;;;-146.47;100.00;66290.13;4975315;28;20209;-77
2021/01/15 00:55:03;;;;;;;18.03;10.10;;;0.00;99.90;;;-146.47;100.00;66290.13;4966328;28;20204;-77
2021/01/15 00:57:48;;;;;;;16.43;9.17;;;0.00;99.90;;;-146.47;100.00;66290.13;4966110;28;20244;-77
2021/01/15 01:00:34;;;;;;;17.80;10.00;;;0.00;99.90;;;-146.47;100.00;66290.13;4962022;28;20229;-77
2021/01/15 01:03:20;;;;;;;15.80;9.33;;;0.10;99.90;;;-146.47;100.00;66290.13;4969202;28;20284;-77
2021/01/15 01:06:10;;;;;;;16.40;8.80;;;0.10;99.90;;;-146.47;100.00;66290.13;4976363;28;20655;-78
2021/01/15 01:08:55;;;;;;;15.70;8.90;;;0.20;99.90;;;-146.47;100.00;66290.13;4970328;28;20217;-77
2021/01/15 01:11:40;;;;;;;14.73;8.47;;;0.20;99.90;;;-146.47;100.00;66290.13;4979284;28;20727;-78
2021/01/15 01:14:25;;;;;;;13.80;7.73;;;0.20;99.90;;;-146.47;100.00;66290.13;4971916;28;20217;-78
2021/01/15 01:17:11;;;;;;;12.80;8.23;;;0.20;99.90;;;-146.47;100.00;66290.13;4967787;28;20300;-77
2021/01/15 01:19:57;;;;;;;15.27;8.60;;;0.20;99.90;;;-146.47;100.00;66290.13;4977465;28;20241;-78
2021/01/15 01:22:49;;;;;;;11.67;7.07;;;0.30;99.90;;;-146.47;100.00;66290.13;4964103;28;20210;-78
2021/01/15 01:25:34;;;;;;;16.97;8.83;;;0.40;99.90;;;-146.47;100.00;66290.13;4976368;28;20213;-78
2021/01/15 01:28:19;;;;;;;12.97;7.53;;;0.40;99.90;;;-146.47;100.00;66290.13;4966113;28;20214;-77
2021/01/15 01:31:04;;;;;;;12.90;7.47;;;0.40;99.90;;;-146.47;100.00;66290.13;4971731;28;20252;-78
2021/01/15 01:33:51;;;;;;;13.93;7.27;;;0.40;99.90;;;-146.47;100.00;66290.13;4980361;28;20202;-77
2021/01/15 01:36:36;;;;;;;14.37;7.53;;;0.50;99.90;;;-146.47;100.00;66290.13;4975403;28;20201;-77
2021/01/15 01:39:21;;;;;;;14.30;7.80;;;0.40;99.90;;;-146.47;100.00;66290.13;4971254;28;20217;-77
2021/01/15 01:42:07;;;;;;;14.07;8.20;;;0.50;99.90;;;-146.47;100.00;66290.13;4982425;28;20620;-77
2021/01/15 01:44:52;;;;;;;16.07;7.87;;;0.60;99.90;;;-146.47;100.00;66290.13;4959235;28;20242;-77
2021/01/15 01:47:37;;;;;;;10.70;7.67;;;0.60;99.90;;;-146.47;100.00;66290.13;4966467;28;20214;-77
2021/01/15 01:50:25;;;;;;;14.43;7.87;;;0.70;99.90;;;-146.47;100.00;66290.13;4963522;28;20243;-76
2021/01/15 01:53:13;;;;;;;13.17;7.70;;;0.70;99.90;;;-146.47;100.00;66290.13;4975147;28;20740;-77
2021/01/15 01:56:05;;;;;;;14.37;7.70;;;0.70;99.90;;;-146.47;100.00;66290.13;4978311;28;20247;-76
2021/01/15 01:58:51;;;;;;;13.37;7.83;;;0.80;99.90;;;-146.47;100.00;66290.13;4991087;28;20210;-76
2021/01/15 02:01:36;;;;;;;11.83;6.83;;;0.80;99.90;;;-146.47;100.00;66290.13;5000249;28;20186;-76
2021/01/15 02:04:22;;;;;;;15.53;8.20;;;0.90;99.90;;;-146.47;100.00;66290.13;4989182;28;20188;-76
2021/01/15 02:07:08;;;;;;;16.10;8.70;;;0.90;99.90;;;-146.47;100.00;66290.13;4982327;28;20273;-79
2021/01/15 02:10:03;;;;;;;14.77;8.70;;;0.90;99.90;;;-146.47;100.00;66290.13;4981912;28;20763;-76
2021/01/15 02:13:08;;;;;;;12.63;8.07;;;0.90;99.90;;;-146.47;100.00;66290.13;4982603;28;20267;-77
2021/01/15 02:16:02;;;;;;;16.73;8.53;;;1.00;99.90;;;-146.47;100.00;66290.13;4969058;28;20228;-79
2021/01/15 02:18:56;;;;;;;15.97;9.20;;;1.00;99.90;;;-146.47;100.00;66290.13;4978890;28;20257;-77
2021/01/15 02:22:28;;;;;;;13.93;8.90;;;1.10;99.90;;;-146.47;100.00;66290.13;4975784;28;20230;-78
2021/01/15 02:26:22;;;;;;;14.70;9.53;;;1.10;99.90;;;-146.47;100.00;66290.13;4962502;28;20285;-77
2021/01/15 02:29:15;;;;;;;16.93;8.23;;;1.10;99.90;;;-146.47;100.00;66290.13;4962121;28;20228;-76
2021/01/15 02:32:32;;;;;;;14.43;8.37;;;1.10;99.90;;;-146.47;100.00;66290.13;4981912;28;20261;-76
2021/01/15 02:35:46;;;;;;;14.97;9.03;;;1.20;99.90;;;-146.47;100.00;66290.13;4973715;28;20209;-77
2021/01/15 02:38:45;;;;;;;14.57;8.63;;;1.20;99.90;;;-146.47;100.00;66290.13;4962581;28;20213;-78
2021/01/15 02:41:31;;;;;;;14.63;8.93;;;1.20;99.90;;;-146.47;100.00;66290.13;4962212;28;20223;-77
2021/01/15 02:44:18;;;;;;;16.23;9.17;;;1.20;99.90;;;-146.47;100.00;66290.13;4963271;28;20232;-76
2021/01/15 02:47:08;;;;;;;14.50;8.77;;;1.20;99.90;;;-146.47;100.00;66290.13;4978522;28;20647;-78
2021/01/15 02:49:55;;;;;;;14.13;8.43;;;1.30;99.90;;;-146.47;100.00;66290.13;4963173;28;20218;-77
2021/01/15 02:52:42;;;;;;;15.43;9.63;;;1.30;99.90;;;-146.47;100.00;66290.13;4966639;28;20280;-77
2021/01/15 02:55:28;;;;;;;14.33;9.10;;;1.30;99.90;;;-146.47;100.00;66290.13;4970304;28;20217;-77
2021/01/15 02:58:14;;;;;;;14.67;8.60;;;1.40;99.90;;;-146.47;100.00;66290.13;4962726;28;20765;-78
2021/01/15 03:00:58;;;;;;;16.27;8.67;;;1.30;99.90;;;-146.47;100.00;66290.13;4959143;28;20250;-79
2021/01/15 03:03:50;;;;;;;14.60;9.40;;;1.40;99.90;;;-146.47;100.00;66290.13;4961853;28;20763;-77
2021/01/15 03:06:45;;;;;;;17.30;8.73;;;1.40;99.90;;;-146.47;100.00;66290.13;4973363;28;20265;-77
2021/01/15 03:09:35;;;;;;;14.60;8.73;;;1.40;99.90;;;-146.47;100.00;66290.13;4973229;28;20230;-78
2021/01/15 03:12:24;;;;;;;13.47;9.17;;;1.50;99.90;;;-146.47;100.00;66290.13;4961804;28;20282;-77
2021/01/15 03:15:15;;;;;;;13.40;8.80;;;1.50;99.90;;;-146.47;100.00;66290.13;4969598;28;20201;-76
2021/01/15 03:18:01;;;;;;;14.60;9.47;;;1.50;99.90;;;-146.47;100.00;66290.13;4968733;28;20248;-77
2021/01/15 03:20:47;;;;;;;14.70;8.63;;;1.50;99.90;;;-146.47;100.00;66290.13;4963704;28;20277;-78
2021/01/15 03:23:37;;;;;;;17.93;9.20;;;1.50;99.90;;;-146.47;100.00;66290.13;4964163;28;20197;-77
2021/01/15 03:26:23;;;;;;;15.50;9.10;;;1.60;99.90;;;-146.47;100.00;66290.13;4976707;28;20225;-79
2021/01/15 03:29:13;;;;;;;15.87;9.77;;;1.50;99.90;;;-146.47;100.00;66290.13;4965453;28;20270;-77
2021/01/15 03:31:58;;;;;;;14.33;9.10;;;1.50;99.90;;;-146.47;100.00;66290.13;4980897;28;20301;-77
2021/01/15 03:34:43;;;;;;;16.50;9.60;;;1.60;99.90;;;-146.47;100.00;66290.13;4970320;28;20613;-76
2021/01/15 03:37:28;;;;;;;13.80;9.20;;;1.60;99.90;;;-146.47;100.00;66290.13;4962416;28;20253;-78
2021/01/15 03:40:15;;;;;;;15.13;9.17;;;1.70;99.90;;;-146.47;100.00;66290.13;4973277;28;20257;-78
2021/01/15 03:43:01;;;;;;;16.60;9.43;;;1.60;99.90;;;-146.47;100.00;66290.13;4974787;28;20253;-77
2021/01/15 03:45:49;;;;;;;16.80;9.50;;;1.60;99.90;;;-146.47;100.00;66290.13;4959487;28;20749;-77
2021/01/15 03:48:34;;;;;;;16.63;10.50;;;1.60;99.90;;;-146.47;100.00;66290.13;4969392;28;20210;-78
2021/01/15 03:51:19;;;;;;;17.37;9.17;;;1.60;99.90;;;-146.47;100.00;66290.13;4980013;28;20241;-77
2021/01/15 03:54:05;;;;;;;15.33;9.80;;;1.70;99.90;;;-146.47;100.00;66290.13;4954510;29;20262;-77
2021/01/15 03:56:51;;;;;;;17.70;10.33;;;1.70;99.90;;;-146.47;100.00;66290.13;4968494;28;20255;-79
2021/01/15 03:59:36;;;;;;;22.03;10.60;;;1.70;99.90;;;-146.47;100.00;66290.13;4965834;28;20241;-77
2021/01/15 04:02:21;;;;;;;18.17;10.20;;;1.70;99.90;;;-146.47;100.00;66290.13;4971237;28;20617;-76
2021/01/15 04:05:11;;;;;;;18.60;10.53;;;1.70;99.90;;;-146.47;100.00;66290.13;4965882;28;20282;-77
2021/01/15 04:07:56;;;;;;;17.03;9.73;;;1.70;99.90;;;-146.47;100.00;66290.13;4980281;28;20238;-74
2021/01/15 04:10:41;;;;;;;18.93;10.20;;;1.80;99.90;;;-146.47;100.00;66290.13;4978392;28;20293;-76
2021/01/15 04:13:27;;;;;;;15.43;10.03;;;1.70;99.90;;;-146.47;100.00;66290.13;4976882;28;20263;-75
2021/01/15 04:16:13;;;;;;;15.57;9.97;;;1.70;99.90;;;-146.47;100.00;66290.13;4982221;28;20213;-79
2021/01/15 04:18:58;;;;;;;15.50;10.27;;;1.70;99.90;;;-146.47;100.00;66290.13;4970026;28;20217;-77
2021/01/15 04:21:44;;;;;;;19.43;10.33;;;1.70;99.90;;;-146.47;100.00;66290.13;4967319;28;20237;-78
2021/01/15 04:24:29;;;;;;;17.60;10.10;;;1.70;99.90;;;-146.47;100.00;66290.13;4973119;28;20205;-77
2021/01/15 04:27:14;;;;;;;17.93;11.00;;;1.80;99.90;;;-146.47;100.00;66290.13;4962019;28;20255;-77
2021/01/15 04:30:01;;;;;;;16.87;10.47;;;1.80;99.90;;;-146.47;100.00;66290.13;4960076;28;20230;-79
2021/01/15 04:32:48;;;;;;;16.10;10.50;;;1.70;99.90;;;-146.47;100.00;66290.13;4969329;28;20233;-77
2021/01/15 04:35:33;;;;;;;20.97;10.60;;;1.70;99.90;;;-146.47;100.00;66290.13;4980485;28;20209;-78
2021/01/15 04:38:20;;;;;;;17.83;10.60;;;1.70;99.90;;;-146.47;100.00;66290.13;4980833;28;20735;-77
2021/01/15 04:41:05;;;;;;;19.87;11.00;;;1.80;99.90;;;-146.47;100.00;66290.13;4966072;28;20602;-79
2021/01/15 04:43:55;;;;;;;17.90;10.43;;;1.70;99.90;;;-146.47;100.00;66290.13;4965123;28;20234;-77
2021/01/15 04:46:42;;;;;;;17.53;10.63;;;1.80;99.90;;;-146.47;100.00;66290.13;4970475;28;20225;-76
2021/01/15 04:49:30;;;;;;;17.90;10.87;;;1.80;99.90;;;-146.47;100.00;66290.13;4976453;28;20221;-77
2021/01/15 04:52:17;;;;;;;20.43;11.80;;;1.80;99.90;;;-146.47;100.00;66290.13;4977920;28;20297;-78
2021/01/15 04:55:02;;;;;;;17.07;11.17;;;1.80;99.90;;;-146.47;100.00;66290.13;4961107;28;20230;-76
2021/01/15 04:57:52;;;;;;;18.43;11.33;;;1.80;99.90;;;-146.47;100.00;66290.13;4969940;28;20204;-76
2021/01/15 05:00:41;;;;;;;24.03;11.77;;;1.80;99.90;;;-146.47;100.00;66290.13;4972014;28;20264;-76
2021/01/15 05:03:27;;;;;;;20.70;11.17;;;1.80;99.90;;;-146.47;100.00;66290.13;4957326;28;20233;-76
2021/01/15 05:06:20;;;;;;;17.53;10.93;;;1.80;99.90;;;-146.47;100.00;66290.13;4965161;28;20310;-75
2021/01/15 05:09:10;;;;;;;18.30;11.47;;;1.80;99.90;;;-146.47;100.00;66290.13;4965835;28;20213;-77
2021/01/15 05:12:06;;;;;;;19.93;10.57;;;1.80;99.90;;;-146.47;100.00;66290.13;4963988;28;20707;-77
2021/01/15 05:14:53;;;;;;;16.80;10.93;;;1.80;99.90;;;-146.47;100.00;66290.13;4976519;28;20204;-78
2021/01/15 05:17:41;;;;;;;18.93;11.23;;;1.80;99.90;;;-146.47;100.00;66290.13;4971601;28;20217;-78
2021/01/15 05:20:30;;;;;;;19.90;11.90;;;1.80;99.90;;;-146.47;100.00;66290.13;4968246;28;20286;-78
2021/01/15 05:23:17;;;;;;;19.20;11.57;;;1.80;99.90;;;-146.47;100.00;66290.13;4954276;28;20209;-78
2021/01/15 05:26:02;;;;;;;17.47;10.83;;;1.70;99.90;;;-146.47;100.00;66290.13;4983279;28;20315;-78
2021/01/15 05:28:49;;;;;;;18.60;11.33;;;1.80;99.90;;;-146.47;100.00;66290.13;4980122;28;20213;-77
2021/01/15 05:31:51;;;;;;;16.77;10.83;;;1.90;99.90;;;-146.47;100.00;66290.13;4974445;28;21005;-77
2021/01/15 05:34:36;;;;;;;17.50;10.53;;;1.80;99.90;;;-146.47;100.00;66290.13;4966002;28;20256;-76
2021/01/15 05:37:22;;;;;;;17.13;10.73;;;1.80;99.90;;;-146.47;100.00;66290.13;4974290;28;20273;-76
2021/01/15 05:40:09;;;;;;;20.13;11.73;;;1.80;99.90;;;-146.47;100.00;66290.13;4961617;28;20358;-77
2021/01/15 05:42:55;;;;;;;19.17;11.37;;;1.80;99.90;;;-146.47;100.00;66290.13;4970858;28;20297;-77
2021/01/15 05:45:40;;;;;;;20.53;12.10;;;1.80;99.90;;;-146.47;100.00;66290.13;4969099;28;20229;-77
2021/01/15 05:48:27;;;;;;;17.93;10.87;;;1.80;99.90;;;-146.47;100.00;66290.13;4970699;28;20286;-77
2021/01/15 05:51:26;;;;;;;19.33;12.30;;;1.80;99.90;;;-146.47;100.00;66290.13;4970955;28;20229;-76
2021/01/15 05:54:28;;;;;;;21.30;12.03;;;1.80;99.90;;;-146.47;100.00;66290.13;4963436;28;20213;-76
2021/01/15 05:57:26;;;;;;;19.10;11.70;;;1.90;99.90;;;-146.47;100.00;66290.13;4968062;28;20201;-76
2021/01/15 06:00:29;;;;;;;21.30;12.37;;;1.80;99.90;;;-146.47;100.00;66290.13;4965488;28;20740;-77
2021/01/15 06:03:15;;;;;;;23.53;12.80;;;1.80;99.90;;;-146.47;100.00;66290.13;4971080;28;20265;-75
2021/01/15 06:06:01;;;;;;;23.13;13.57;;;1.80;99.90;;;-146.47;100.00;66290.13;4957126;28;20237;-76
2021/01/15 06:08:48;;;;;;;20.90;13.03;;;1.80;99.90;;;-146.47;100.00;66290.13;4972852;28;20593;-76
2021/01/15 06:11:36;;;;;;;23.57;13.47;;;1.80;99.90;;;-146.47;100.00;66290.13;4970196;28;20258;-76
2021/01/15 06:14:24;;;;;;;21.63;12.63;;;1.80;99.90;;;-146.47;100.00;66290.13;4954419;28;20246;-77
2021/01/15 06:17:10;;;;;;;22.90;14.13;;;1.80;99.90;;;-146.47;100.00;66290.13;4957571;28;20321;-76
2021/01/15 06:20:00;;;;;;;28.00;14.03;;;1.80;99.90;;;-146.47;100.00;66290.13;4968487;28;20349;-76
2021/01/15 06:22:48;;;;;;;27.40;14.40;;;1.80;99.90;;;-146.47;100.00;66290.13;4964389;28;20686;-76
2021/01/15 06:25:36;;;;;;;26.23;14.30;;;1.80;99.90;;;-146.47;100.00;66290.13;4966228;28;20656;-77
2021/01/15 06:28:34;;;;;;;24.63;14.43;;;1.80;99.90;;;-146.47;100.00;66290.13;4956122;28;20229;-75
2021/01/15 06:31:19;;;;;;;25.77;15.77;;;1.80;99.90;;;-146.47;100.00;66290.13;4963790;28;20223;-76
2021/01/15 06:34:06;;;;;;;22.23;13.43;;;1.80;99.90;;;-146.47;100.00;66290.13;4959579;28;20226;-76
2021/01/15 06:36:54;;;;;;;25.27;14.27;;;1.80;99.90;;;-146.47;100.00;66290.13;4963493;28;20210;-77
2021/01/15 06:39:40;;;;;;;24.93;15.27;;;1.80;99.90;;;-146.47;100.00;66290.13;4953134;28;20773;-77
2021/01/15 06:42:30;;;;;;;24.07;14.77;;;1.80;99.90;;;-146.47;100.00;66290.13;4960568;28;20214;-77
2021/01/15 06:45:16;;;;;;;23.30;14.17;;;1.80;99.90;;;-146.47;100.00;66290.13;4963176;28;20218;-77
2021/01/15 06:48:09;;;;;;;26.40;13.60;;;1.80;99.90;;;-146.47;100.00;66290.13;4963238;28;20225;-76
2021/01/15 06:50:57;;;;;;;24.43;13.93;;;1.80;99.90;;;-146.47;100.00;66290.13;4968463;28;20244;-76
2021/01/15 06:53:41;;;;;;;23.10;13.37;;;1.80;99.90;;;-146.47;100.00;66290.13;4965228;28;20580;-76
2021/01/15 06:56:38;;;;;;;23.63;14.67;;;1.90;99.90;;;-146.47;100.00;66290.13;4967522;28;20302;-75
2021/01/15 06:59:33;;;;;;;25.50;14.50;;;1.80;99.90;;;-146.47;100.00;66290.13;4966678;28;20324;-77
2021/01/15 07:03:09;;;;;;;24.43;14.73;;;1.80;99.90;;;-146.47;100.00;66290.13;4967669;28;20716;-77
2021/01/15 07:05:59;;;;;;;27.63;14.70;;;1.80;99.90;;;-146.47;100.00;66290.13;4962423;28;20274;-77
2021/01/15 07:08:45;;;;;;;20.10;13.80;;;1.80;99.90;;;-146.47;100.00;66290.13;4959383;28;20213;-77
2021/01/15 07:11:30;;;;;;;31.27;15.07;;;1.80;99.90;;;-146.47;100.00;66290.13;4965491;28;20225;-77
2021/01/15 07:14:26;;;;;;;23.93;14.37;;;1.90;99.90;;;-146.47;100.00;66290.13;4961417;28;20218;-77
2021/01/15 07:17:31;;;;;;;25.60;15.80;;;1.80;99.90;;;-146.47;100.00;66290.13;4960532;28;20206;-76
2021/01/15 07:20:19;;;;;;;27.40;15.50;;;1.80;99.90;;;-146.47;100.00;66290.13;4959724;28;20257;-76
2021/01/15 07:23:15;;;;;;;27.60;16.00;;;1.90;99.90;;;-146.47;100.00;66290.13;4967867;28;20205;-76
2021/01/15 07:26:04;;;;;;;25.73;16.37;;;1.80;99.90;;;-146.47;100.00;66290.13;4966625;28;20249;-77
2021/01/15 07:28:57;;;;;;;25.93;15.83;;;1.80;99.90;;;-146.47;100.00;66290.13;4964854;28;20287;-76
2021/01/15 07:31:50;;;;;;;29.83;16.23;;;1.80;99.90;;;-146.47;100.00;66290.13;4970556;28;20209;-77
2021/01/15 07:34:46;;;;;;;27.83;14.93;;;1.80;99.90;;;-146.47;100.00;66290.13;4970385;28;20525;-77
2021/01/15 07:37:32;;;;;;;26.23;15.53;;;1.80;99.90;;;-146.47;100.00;66290.13;4961599;28;20261;-77
2021/01/15 07:40:20;;;;;;;26.00;15.17;;;1.80;99.90;;;-146.47;100.00;66290.13;4964177;28;20237;-76
2021/01/15 07:43:07;;;;;;;24.37;14.20;;;1.90;99.90;;;-146.47;100.00;66290.13;4958191;28;20206;-77
2021/01/15 07:46:00;;;;;;;28.40;15.37;;;1.80;99.90;;;-146.47;100.00;66290.13;4957443;28;20349;-76
2021/01/15 07:49:00;;;;;;;27.30;15.13;;;1.90;99.90;;;-146.47;100.00;66290.13;4968589;28;20205;-77
2021/01/15 07:52:07;;;;;;;23.70;14.17;;;1.90;99.90;;;-146.47;100.00;66290.13;4964657;28;20639;-77
2021/01/15 07:55:00;;;;;;;24.00;14.57;;;1.90;99.90;;;-146.47;100.00;66290.13;4955597;28;20221;-76
2021/01/15 07:57:57;;;;;;;24.17;15.03;;;1.90;99.90;;;-146.47;100.00;66290.13;4967914;28;20209;-77
2021/01/15 08:00:43;;;;;;;27.27;15.57;;;1.80;99.90;;;-146.47;100.00;66290.13;4965448;28;20265;-76
2021/01/15 08:03:30;;;;;;;27.03;15.80;;;1.90;99.90;;;-146.47;100.00;66290.13;4962784;28;20209;-77
2021/01/15 08:06:17;;;;;;;27.67;15.97;;;1.90;99.90;;;-146.47;100.00;66290.13;4965531;28;20221;-75
2021/01/15 08:09:05;;;;;;;29.73;15.87;;;1.90;99.90;;;-146.47;100.00;66290.13;4949826;28;20248;-77
2021/01/15 08:11:57;;;;;;;25.67;14.63;;;1.90;99.90;;;-146.47;100.00;66290.13;4974157;28;20249;-77
2021/01/15 08:14:42;;;;;;;23.70;14.27;;;1.90;99.90;;;-146.47;100.00;66290.13;4968519;28;20666;-77
2021/01/15 08:17:29;;;;;;;27.33;15.17;;;1.90;99.90;;;-146.47;100.00;66290.13;4959583;28;20805;-77
2021/01/15 08:20:14;;;;;;;27.37;15.20;;;1.90;99.90;;;-146.47;100.00;66290.13;4957567;28;20241;-78
2021/01/15 08:22:59;;;;;;;24.70;14.80;;;1.90;99.90;;;-146.47;100.00;66290.13;4972572;28;20221;-78
2021/01/15 08:25:45;;;;;;;30.03;15.57;;;2.00;99.90;;;-146.47;100.00;66290.13;4968810;28;20238;-77
2021/01/15 08:28:34;;;;;;;28.70;16.13;;;1.90;99.90;;;-146.47;100.00;66290.13;4966606;28;20274;-76
2021/01/15 08:31:22;;;;;;;23.90;14.37;;;1.90;99.90;;;-146.47;100.00;66290.13;4952804;28;20257;-77
2021/01/15 08:34:13;;;;;;;25.80;14.73;;;2.00;99.90;;;-146.47;100.00;66290.13;4955678;28;20269;-78
2021/01/15 08:37:00;;;;;;;25.77;15.60;;;2.00;99.90;;;-146.47;100.00;66290.13;4959877;28;20201;-77
2021/01/15 08:39:48;;;;;;;27.10;14.20;;;2.00;99.90;;;-146.47;100.00;66290.13;4960012;28;20639;-77
2021/01/15 08:42:34;;;;;;;27.37;15.53;;;2.00;99.90;;;-146.47;100.00;66290.13;4968808;28;20571;-78
2021/01/15 08:45:23;;;;;;;29.87;16.00;;;2.00;99.90;;;-146.47;100.00;66290.13;4962568;28;20209;-78
2021/01/15 08:48:10;;;;;;;27.23;15.73;;;2.00;99.90;;;-146.47;100.00;66290.13;4954721;28;20345;-77
2021/01/15 08:51:08;;;;;;;28.00;15.17;;;2.00;99.90;;;-146.47;100.00;66290.13;4968028;28;20237;-77
2021/01/15 08:54:04;;;;;;;26.03;14.43;;;2.00;99.90;;;-146.47;100.00;66290.13;4960458;28;20206;-78
2021/01/15 08:56:51;;;;;;;26.83;15.23;;;2.10;99.90;;;-146.47;100.00;66290.13;4964682;28;20202;-77
2021/01/15 08:59:38;;;;;;;31.20;16.27;;;2.10;99.90;;;-146.47;100.00;66290.13;4968144;28;20305;-77
2021/01/15 09:02:23;;;;;;;28.37;16.60;;;2.10;99.90;;;-146.47;100.00;66290.13;4956907;28;20235;-77
2021/01/15 09:05:11;;;;;;;27.63;15.90;;;2.10;99.90;;;-146.47;100.00;66290.13;4960553;28;20226;-77
2021/01/15 09:08:01;;;;;;;28.10;14.77;;;2.10;99.90;;;-146.47;100.00;66290.13;4971575;28;20213;-77
2021/01/15 09:10:49;;;;;;;29.50;15.83;;;2.10;99.90;;;-146.47;100.00;66290.13;4970448;28;20342;-78
2021/01/15 09:13:38;;;;;;;27.70;14.90;;;2.20;99.90;;;-146.47;100.00;66290.13;4963397;28;20210;-77
2021/01/15 09:16:26;;;;;;;27.43;14.87;;;2.20;99.90;;;-146.47;100.00;66290.13;4959394;28;20218;-77
2021/01/15 09:19:12;;;;;;;35.70;15.70;;;2.10;99.90;;;-146.47;100.00;66290.13;4964863;28;20674;-77
2021/01/15 09:22:00;;;;;;;31.77;17.10;;;2.30;99.90;;;-146.47;100.00;66290.13;4964445;28;20272;-77
2021/01/15 09:24:45;;;;;;;35.70;17.77;;;2.30;99.90;;;-146.47;100.00;66290.13;4967633;28;20205;-77
2021/01/15 09:27:31;;;;;;;30.13;17.13;;;2.30;99.90;;;-146.47;100.00;66290.13;4979430;28;20286;-76
2021/01/15 09:30:17;;;;;;;27.60;15.20;;;2.40;99.90;;;-146.47;100.00;66290.13;4964556;28;20229;-76
2021/01/15 09:33:04;;;;;;;28.90;16.23;;;2.40;99.90;;;-146.47;100.00;66290.13;4961529;28;20201;-77
2021/01/15 09:35:52;;;;;;;29.77;15.97;;;2.40;99.90;;;-146.47;100.00;66290.13;4978961;28;20222;-76
2021/01/15 09:38:37;;;;;;;25.73;15.43;;;2.50;99.90;;;-146.47;100.00;66290.13;4975236;28;20217;-76
2021/01/15 09:41:24;;;;;;;27.80;15.03;;;2.60;99.90;;;-146.47;100.00;66290.13;4967710;28;20269;-77
2021/01/15 09:44:08;;;;;;;26.60;14.03;;;2.50;99.90;;;-146.47;100.00;66290.13;4960861;28;20378;-77
2021/01/15 09:46:57;;;;;;;25.97;15.53;;;2.60;99.90;;;-146.47;100.00;66290.13;4956879;28;20328;-77
2021/01/15 09:49:43;;;;;;;27.27;14.57;;;2.60;99.90;;;-146.47;100.00;66290.13;4964294;28;20669;-77
2021/01/15 09:52:28;;;;;;;24.33;13.90;;;2.70;99.90;;;-146.47;100.00;66290.13;4969008;28;20563;-77
2021/01/15 09:55:14;;;;;;;24.53;14.60;;;2.70;99.90;;;-146.47;100.00;66290.13;4967917;28;20205;-77
2021/01/15 09:57:59;;;;;;;28.03;14.33;;;2.60;99.90;;;-146.47;100.00;66290.13;4961609;28;20213;-77
2021/01/15 10:00:44;;;;;;;26.77;13.83;;;2.70;99.90;;;-146.47;100.00;66290.13;4961082;28;20600;-77
2021/01/15 10:03:29;;;;;;;26.13;13.57;;;2.70;99.90;;;-146.47;100.00;66290.13;4962692;28;20205;-76
2021/01/15 10:06:16;;;;;;;23.83;13.40;;;2.80;99.90;;;-146.47;100.00;66290.13;4961301;28;20225;-77
2021/01/15 10:09:02;;;;;;;24.93;13.60;;;2.90;99.90;;;-146.47;100.00;66290.13;4973558;28;20204;-77
2021/01/15 10:11:49;;;;;;;24.27;13.20;;;2.80;99.90;;;-146.47;100.00;66290.13;4961946;28;20249;-77
2021/01/15 10:14:34;;;;;;;20.50;12.43;;;2.90;99.90;;;-146.47;100.00;66290.13;4960774;28;20257;-77
2021/01/15 10:17:19;;;;;;;22.80;13.53;;;2.90;99.90;;;-146.47;100.00;66290.13;4955439;28;20260;-76
2021/01/15 10:20:07;;;;;;;24.13;13.13;;;2.90;99.90;;;-146.47;100.00;66290.13;4969443;28;20640;-77
2021/01/15 10:22:53;;;;;;;24.33;12.80;;;3.00;99.90;;;-146.47;100.00;66290.13;4971551;28;20228;-77
2021/01/15 10:25:41;;;;;;;22.37;12.93;;;3.00;99.90;;;-146.47;100.00;66290.13;4968797;28;20249;-77
2021/01/15 10:28:26;;;;;;;22.97;13.23;;;3.00;99.90;;;-146.47;100.00;66290.13;4976254;28;20205;-75
2021/01/15 10:31:11;;;;;;;23.70;13.47;;;3.00;99.90;;;-146.47;100.00;66290.13;4976603;28;20225;-78
2021/01/15 10:33:57;;;;;;;25.40;12.93;;;3.10;99.90;;;-146.47;100.00;66290.13;4980177;28;20225;-76
2021/01/15 10:36:44;;;;;;;22.80;12.67;;;3.10;99.90;;;-146.47;100.00;66290.13;4994443;28;20261;-75
2021/01/15 10:39:30;;;;;;;24.57;13.10;;;3.20;99.90;;;-146.47;100.00;66290.13;4980351;28;20248;-77
2021/01/15 10:42:15;;;;;;;21.10;12.20;;;3.20;99.90;;;-146.47;100.00;66290.13;4970862;28;20711;-77
2021/01/15 10:45:00;;;;;;;20.07;12.07;;;3.20;99.90;;;-146.47;100.00;66290.13;4953971;28;20238;-76
2021/01/15 10:47:45;;;;;;;22.90;13.00;;;3.30;99.90;;;-146.47;100.00;66290.13;4971176;28;20234;-77
2021/01/15 10:50:31;;;;;;;21.80;12.40;;;3.30;99.90;;;-146.47;100.00;66290.13;4961825;28;20241;-76
2021/01/15 10:53:16;;;;;;;20.67;12.17;;;3.30;99.90;;;-146.47;100.00;66290.13;4974091;28;20684;-78
2021/01/15 10:56:02;;;;;;;21.60;11.73;;;3.40;99.90;;;-146.47;100.00;66290.13;4958006;28;20256;-77
2021/01/15 10:58:47;;;;;;;22.37;13.43;;;3.40;99.90;;;-146.47;100.00;66290.13;4962757;28;20513;-76
2021/01/15 11:01:36;;;;;;;19.07;11.70;;;3.40;99.90;;;-146.47;100.00;66290.13;4959027;28;20303;-77
2021/01/15 11:04:21;;;;;;;20.33;11.93;;;3.40;99.90;;;-146.47;100.00;66290.13;4969706;28;20201;-77
2021/01/15 11:07:06;;;;;;;19.27;11.50;;;3.40;99.90;;;-146.47;100.00;66290.13;4957006;28;20234;-77
2021/01/15 11:09:51;;;;;;;18.10;11.53;;;3.50;99.90;;;-146.47;100.00;66290.13;4960195;28;20289;-76
2021/01/15 11:12:38;;;;;;;19.57;11.73;;;3.50;99.90;;;-146.47;100.00;66290.13;4967850;28;20213;-76
2021/01/15 11:15:23;;;;;;;19.33;11.40;;;3.50;99.90;;;-146.47;100.00;66290.13;4958809;28;20226;-77
2021/01/15 11:18:08;;;;;;;19.73;12.53;;;3.50;99.90;;;-146.47;100.00;66290.13;4957676;28;20214;-77
2021/01/15 11:20:53;;;;;;;19.60;11.30;;;3.50;99.90;;;-146.47;100.00;66290.13;4955459;28;20723;-76
2021/01/15 11:23:38;;;;;;;19.50;11.53;;;3.50;99.90;;;-146.47;100.00;66290.13;4958293;28;20205;-77